createdAt,value
2019-02-04T00:00:41.602Z,15.15
2019-02-04T00:03:14.040Z,16.65
2019-02-04T00:05:42.496Z,18.07
2019-02-04T00:08:12.442Z,21.67
2019-02-04T00:10:47.497Z,19.97
2019-02-04T00:13:11.011Z,21.10
2019-02-04T00:15:43.070Z,18.37
2019-02-04T00:18:09.150Z,31.40
2019-02-04T00:20:37.320Z,17.00
2019-02-04T00:23:05.382Z,19.77
2019-02-04T00:25:33.959Z,19.10
2019-02-04T00:28:02.153Z,18.02
2019-02-04T00:30:31.770Z,18.32
2019-02-04T00:33:02.231Z,20.20
2019-02-04T00:35:30.400Z,18.17
2019-02-04T00:38:08.961Z,22.20
2019-02-04T00:40:28.435Z,20.07
2019-02-04T00:42:56.542Z,22.13
2019-02-04T00:45:24.607Z,19.80
2019-02-04T00:47:52.833Z,18.00
2019-02-04T00:50:22.964Z,22.55
2019-02-04T00:52:50.980Z,23.77
2019-02-04T00:55:25.503Z,24.23
2019-02-04T00:57:51.023Z,22.83
2019-02-04T01:00:20.679Z,20.82
2019-02-04T01:02:48.705Z,25.20
2019-02-04T01:05:18.257Z,23.23
2019-02-04T01:07:46.615Z,21.17
2019-02-04T01:10:18.889Z,22.10
2019-02-04T01:12:46.916Z,26.23
2019-02-04T01:15:15.012Z,25.97
2019-02-04T01:17:43.122Z,21.27
2019-02-04T01:20:12.928Z,23.77
2019-02-04T01:22:41.014Z,22.10
2019-02-04T01:25:09.475Z,25.63
2019-02-04T01:27:37.610Z,25.08
2019-02-04T01:30:07.265Z,34.63
2019-02-04T01:32:35.372Z,31.10
2019-02-04T01:35:03.649Z,25.20
2019-02-04T01:37:31.703Z,29.77
2019-02-04T01:40:00.164Z,30.05
2019-02-04T01:42:28.251Z,27.47
2019-02-04T01:44:56.302Z,28.40
2019-02-04T01:47:24.321Z,33.30
2019-02-04T01:49:52.479Z,27.77
2019-02-04T01:52:23.937Z,32.67
2019-02-04T01:54:52.908Z,25.60
2019-02-04T01:57:22.117Z,35.87
2019-02-04T01:59:50.606Z,28.65
2019-02-04T02:02:24.105Z,31.90
2019-02-04T02:04:52.450Z,28.40
2019-02-04T02:07:21.284Z,30.50
2019-02-04T02:09:49.732Z,29.70
2019-02-04T02:12:17.977Z,31.70
2019-02-04T02:14:47.744Z,28.00
2019-02-04T02:17:26.119Z,36.13
2019-02-04T02:19:46.379Z,43.52
2019-02-04T02:22:14.612Z,28.60
2019-02-04T02:24:42.970Z,29.20
2019-02-04T02:27:12.986Z,35.40
2019-02-04T02:29:40.812Z,29.70
2019-02-04T02:32:08.900Z,47.00
2019-02-04T02:34:39.131Z,31.73
2019-02-04T02:37:07.225Z,29.90
2019-02-04T02:39:36.943Z,30.95
2019-02-04T02:42:05.009Z,34.73
2019-02-04T02:44:33.096Z,33.10
2019-02-04T02:47:01.114Z,38.58
2019-02-04T02:49:29.173Z,37.83
2019-02-04T02:51:58.838Z,29.18
2019-02-04T02:54:27.311Z,33.90
2019-02-04T02:56:57.679Z,33.75
2019-02-04T02:59:25.850Z,34.97
2019-02-04T03:01:55.525Z,28.97
2019-02-04T03:04:23.612Z,35.97
2019-02-04T03:06:51.984Z,32.07
2019-02-04T03:09:20.094Z,35.50
2019-02-04T03:11:48.109Z,32.93
2019-02-04T03:14:16.152Z,40.50
2019-02-04T03:16:44.228Z,34.93
2019-02-04T03:19:12.251Z,33.18
2019-02-04T03:21:40.300Z,35.28
2019-02-04T03:24:08.389Z,39.60
2019-02-04T03:26:36.884Z,36.08
2019-02-04T03:29:05.145Z,38.77
2019-02-04T03:31:33.254Z,31.55
2019-02-04T03:34:01.408Z,34.83
2019-02-04T03:36:32.590Z,40.43
2019-02-04T03:39:00.712Z,38.27
2019-02-04T03:41:32.532Z,40.53
2019-02-04T03:44:02.200Z,33.20
2019-02-04T03:46:30.188Z,36.90
2019-02-04T03:48:58.291Z,37.50
2019-02-04T03:51:26.321Z,36.73
2019-02-04T03:53:54.338Z,35.53
2019-02-04T03:56:24.019Z,40.83
2019-02-04T03:58:52.066Z,40.77
2019-02-04T04:01:20.145Z,32.33
2019-02-04T04:03:48.161Z,33.43
2019-02-04T04:06:17.042Z,40.75
2019-02-04T04:08:45.043Z,37.83
2019-02-04T04:11:13.085Z,51.70
2019-02-04T04:14:00.540Z,36.43
2019-02-04T04:16:28.629Z,40.47
2019-02-04T04:18:56.720Z,36.53
2019-02-04T04:21:25.061Z,44.20
2019-02-04T04:23:57.089Z,33.73
2019-02-04T04:26:25.702Z,32.58
2019-02-04T04:28:53.818Z,37.40
2019-02-04T04:31:23.985Z,42.63
2019-02-04T04:33:52.328Z,31.67
2019-02-04T04:36:21.356Z,34.80
2019-02-04T04:38:49.423Z,38.67
2019-02-04T04:41:17.478Z,36.03
2019-02-04T04:43:45.788Z,41.37
2019-02-04T04:46:13.819Z,43.40
2019-02-04T04:48:41.877Z,32.00
2019-02-04T04:51:09.967Z,35.30
2019-02-04T04:53:39.926Z,40.90
2019-02-04T04:56:08.124Z,32.43
2019-02-04T04:58:40.586Z,44.13
2019-02-04T05:01:07.638Z,34.50
2019-02-04T05:03:35.737Z,33.23
2019-02-04T05:06:05.304Z,41.20
2019-02-04T05:08:33.349Z,33.97
2019-02-04T05:11:01.548Z,36.90
2019-02-04T05:13:31.319Z,30.30
2019-02-04T05:15:59.415Z,35.33
2019-02-04T05:18:37.436Z,32.20
2019-02-04T05:20:57.318Z,30.97
2019-02-04T05:23:27.747Z,32.33
2019-02-04T05:25:55.934Z,33.35
2019-02-04T05:28:24.037Z,29.43
2019-02-04T05:30:52.166Z,30.87
2019-02-04T05:33:20.217Z,39.17
2019-02-04T05:35:50.140Z,33.47
2019-02-04T05:38:18.161Z,29.87
2019-02-04T05:40:46.173Z,30.93
2019-02-04T05:43:14.266Z,39.38
2019-02-04T05:45:43.924Z,31.53
2019-02-04T05:48:13.436Z,30.30
2019-02-04T05:50:41.584Z,38.42
2019-02-04T05:53:09.639Z,31.27
2019-02-04T05:55:42.239Z,28.93
2019-02-04T05:58:10.351Z,32.93
2019-02-04T06:00:40.828Z,25.07
2019-02-04T06:03:08.875Z,33.60
2019-02-04T06:05:36.900Z,28.77
2019-02-04T06:08:04.967Z,27.40
2019-02-04T06:10:32.987Z,28.17
2019-02-04T06:13:01.161Z,32.08
2019-02-04T06:15:29.411Z,31.97
2019-02-04T06:17:58.232Z,28.92
2019-02-04T06:20:28.036Z,29.70
2019-02-04T06:22:56.200Z,34.77
2019-02-04T06:25:24.283Z,30.33
2019-02-04T06:27:52.391Z,30.83
2019-02-04T06:30:24.421Z,24.10
2019-02-04T06:32:52.684Z,49.57
2019-02-04T06:35:27.466Z,47.30
2019-02-04T06:37:55.571Z,29.57
2019-02-04T06:40:24.404Z,31.60
2019-02-04T06:42:54.199Z,28.97
2019-02-04T06:45:22.286Z,28.02
2019-02-04T06:47:50.393Z,26.10
2019-02-04T06:50:19.130Z,27.17
2019-02-04T06:52:47.320Z,30.53
2019-02-04T06:55:20.141Z,30.90
2019-02-04T06:57:48.238Z,33.33
2019-02-04T07:00:17.069Z,28.80
2019-02-04T07:02:45.119Z,26.00
2019-02-04T07:05:13.147Z,29.80
2019-02-04T07:07:41.245Z,28.40
2019-02-04T07:10:13.797Z,29.63
2019-02-04T07:12:41.934Z,32.97
2019-02-04T07:15:10.228Z,38.27
2019-02-04T07:17:38.261Z,27.80
2019-02-04T07:20:07.982Z,22.32
2019-02-04T07:22:36.004Z,22.93
2019-02-04T07:25:05.664Z,29.00
2019-02-04T07:27:33.690Z,24.23
2019-02-04T07:30:01.807Z,29.63
2019-02-04T07:32:29.902Z,22.83
2019-02-04T07:34:58.008Z,26.80
2019-02-04T07:37:30.501Z,26.40
2019-02-04T07:39:58.635Z,24.20
2019-02-04T07:42:26.808Z,25.80
2019-02-04T07:44:54.870Z,27.33
2019-02-04T07:47:22.925Z,27.42
2019-02-04T07:49:50.952Z,27.53
2019-02-04T07:52:19.136Z,21.17
2019-02-04T07:54:47.154Z,24.17
2019-02-04T07:57:15.250Z,22.87
2019-02-04T07:59:51.803Z,25.33
2019-02-04T08:02:17.079Z,22.33
2019-02-04T08:04:45.331Z,32.20
2019-02-04T08:07:17.606Z,26.10
2019-02-04T08:09:45.630Z,22.93
2019-02-04T08:12:15.151Z,24.12
2019-02-04T08:15:16.362Z,20.20
2019-02-04T08:17:36.056Z,25.10
2019-02-04T08:20:05.004Z,25.40
2019-02-04T08:22:33.119Z,30.40
2019-02-04T08:25:01.164Z,22.73
2019-02-04T08:27:29.193Z,22.83
2019-02-04T08:29:58.909Z,24.00
2019-02-04T08:32:27.074Z,25.53
2019-02-04T08:34:55.353Z,22.58
2019-02-04T08:37:23.490Z,29.20
2019-02-04T08:39:51.640Z,21.77
2019-02-04T08:42:19.787Z,22.47
2019-02-04T08:44:47.870Z,25.97
2019-02-04T08:47:22.917Z,25.50
2019-02-04T08:49:58.011Z,25.50
2019-02-04T08:52:26.257Z,24.37
2019-02-04T08:54:49.898Z,23.83
2019-02-04T08:57:19.681Z,21.62
2019-02-04T08:59:48.196Z,25.80
2019-02-04T09:02:16.946Z,24.13
2019-02-04T09:04:45.415Z,18.63
2019-02-04T09:07:13.515Z,20.97
2019-02-04T09:09:41.530Z,25.67
2019-02-04T09:12:10.013Z,20.83
2019-02-04T09:14:38.174Z,21.07
2019-02-04T09:17:09.527Z,19.27
2019-02-04T09:19:37.608Z,24.63
2019-02-04T09:22:06.134Z,25.47
2019-02-04T09:24:34.674Z,21.33
2019-02-04T09:27:02.852Z,19.53
2019-02-04T09:29:37.342Z,22.43
2019-02-04T09:32:02.382Z,19.60
2019-02-04T09:34:30.499Z,25.43
2019-02-04T09:36:58.568Z,22.20
2019-02-04T09:39:26.628Z,24.63
2019-02-04T09:41:56.318Z,18.57
2019-02-04T09:44:24.384Z,18.20
2019-02-04T09:46:52.555Z,19.40
2019-02-04T09:49:20.640Z,16.27
2019-02-04T09:51:52.964Z,21.00
2019-02-04T09:54:18.585Z,19.83
2019-02-04T09:56:46.722Z,30.72
2019-02-04T09:59:14.809Z,19.75
2019-02-04T10:01:47.131Z,20.00
2019-02-04T10:04:15.172Z,19.90
2019-02-04T10:06:44.936Z,18.75
2019-02-04T10:09:13.439Z,21.43
2019-02-04T10:11:41.576Z,18.17
2019-02-04T10:14:09.595Z,19.90
2019-02-04T10:16:37.675Z,18.63
2019-02-04T10:19:08.085Z,19.83
2019-02-04T10:21:35.500Z,19.23
2019-02-04T10:24:03.910Z,19.73
2019-02-04T10:26:32.779Z,18.37
2019-02-04T10:29:02.498Z,19.77
2019-02-04T10:31:30.583Z,21.63
2019-02-04T10:33:58.732Z,19.47
2019-02-04T10:36:26.956Z,18.27
2019-02-04T10:38:55.436Z,16.03
2019-02-04T10:41:28.218Z,17.50
2019-02-04T10:43:56.416Z,17.37
2019-02-04T10:46:24.503Z,19.47
2019-02-04T10:48:52.674Z,13.97
2019-02-04T10:51:20.896Z,15.60
2019-02-04T10:53:50.738Z,19.33
2019-02-04T10:56:18.935Z,14.47
2019-02-04T10:58:48.641Z,19.23
2019-02-04T11:01:16.819Z,21.60
2019-02-04T11:03:44.995Z,15.90
2019-02-04T11:06:13.084Z,14.97
2019-02-04T11:08:41.178Z,22.40
2019-02-04T11:11:11.609Z,17.53
2019-02-04T11:13:38.973Z,19.67
2019-02-04T11:16:07.100Z,20.00
2019-02-04T11:18:35.240Z,16.25
2019-02-04T11:23:56.568Z,17.83
2019-02-04T11:26:24.742Z,20.07
2019-02-04T11:28:52.830Z,22.23
2019-02-04T11:31:20.915Z,25.47
2019-02-04T11:33:50.387Z,16.53
2019-02-04T11:36:18.715Z,19.00
2019-02-04T11:38:46.825Z,19.23
2019-02-04T11:41:14.948Z,21.37
2019-02-04T11:43:43.083Z,15.90
2019-02-04T11:46:11.191Z,14.07
2019-02-04T11:48:39.314Z,15.40
2019-02-04T11:51:09.720Z,13.38
2019-02-04T11:53:37.179Z,16.43
2019-02-04T11:56:05.255Z,12.65
2019-02-04T11:58:33.286Z,12.33
2019-02-04T12:01:01.415Z,12.67
2019-02-04T12:03:29.557Z,15.17
2019-02-04T12:05:57.643Z,14.60
2019-02-04T12:08:26.105Z,10.97
2019-02-04T12:10:56.031Z,20.07
2019-02-04T12:13:24.135Z,12.47
2019-02-04T12:15:52.613Z,9.17
2019-02-04T12:18:20.705Z,13.97
2019-02-04T12:20:48.772Z,11.10
2019-02-04T12:23:16.904Z,12.00
2019-02-04T12:25:45.034Z,14.50
2019-02-04T12:28:13.065Z,10.03
2019-02-04T12:30:41.701Z,14.30
2019-02-04T12:33:13.381Z,13.50
2019-02-04T12:35:41.509Z,17.17
2019-02-04T12:38:09.533Z,10.07
2019-02-04T12:40:37.673Z,14.50
2019-02-04T12:43:05.771Z,10.97
2019-02-04T12:45:35.435Z,9.17
2019-02-04T12:48:03.533Z,10.60
2019-02-04T12:50:31.571Z,7.58
2019-02-04T12:52:59.677Z,9.23
2019-02-04T12:55:29.081Z,8.87
2019-02-04T12:57:57.227Z,11.50
2019-02-04T13:00:26.388Z,9.50
2019-02-04T13:02:54.757Z,11.27
2019-02-04T13:05:30.170Z,10.17
2019-02-04T13:07:58.548Z,7.73
2019-02-04T13:10:26.701Z,7.93
2019-02-04T13:12:54.784Z,10.03
2019-02-04T13:15:23.489Z,12.77
2019-02-04T13:17:51.979Z,8.43
2019-02-04T13:20:20.710Z,6.58
2019-02-04T13:22:49.038Z,9.10
2019-02-04T13:25:19.873Z,8.10
2019-02-04T13:27:47.985Z,8.80
2019-02-04T13:30:20.164Z,6.22
2019-02-04T13:32:48.275Z,5.37
2019-02-04T13:35:16.397Z,8.67
2019-02-04T13:37:44.493Z,6.40
2019-02-04T13:40:17.225Z,7.33
2019-02-04T13:42:45.268Z,6.35
2019-02-04T13:45:14.471Z,10.27
2019-02-04T13:47:42.593Z,9.93
2019-02-04T13:50:11.318Z,7.47
2019-02-04T13:52:39.459Z,8.23
2019-02-04T13:55:09.502Z,7.57
2019-02-04T13:57:37.628Z,13.23
2019-02-04T14:00:07.375Z,7.20
2019-02-04T14:02:35.508Z,6.00
2019-02-04T14:05:04.399Z,4.40
2019-02-04T14:07:32.463Z,6.77
2019-02-04T14:10:00.908Z,6.83
2019-02-04T14:12:28.999Z,6.77
2019-02-04T14:14:57.070Z,10.20
2019-02-04T14:17:25.109Z,7.97
2019-02-04T14:19:53.226Z,12.67
2019-02-04T14:22:21.264Z,10.23
2019-02-04T14:24:49.752Z,6.10
2019-02-04T14:27:17.832Z,7.17
2019-02-04T14:29:45.902Z,6.60
2019-02-04T14:32:14.774Z,5.57
2019-02-04T14:34:42.863Z,7.62
2019-02-04T14:37:10.983Z,6.63
2019-02-04T14:39:39.379Z,4.60
2019-02-04T14:42:08.888Z,7.50
2019-02-04T14:44:37.957Z,7.92
2019-02-04T14:47:26.970Z,5.53
2019-02-04T14:50:15.359Z,7.90
2019-02-04T14:52:54.206Z,5.80
2019-02-04T14:55:26.753Z,6.70
2019-02-04T14:57:56.813Z,5.97
2019-02-04T15:00:26.568Z,12.97
2019-02-04T15:02:56.208Z,7.90
2019-02-04T15:05:38.360Z,7.07
2019-02-04T15:08:10.865Z,6.80
2019-02-04T15:10:46.433Z,6.43
2019-02-04T15:13:20.742Z,12.10
2019-02-04T15:16:02.728Z,8.80
2019-02-04T15:18:32.597Z,11.40
2019-02-04T15:21:08.227Z,5.83
2019-02-04T15:23:43.905Z,8.27
2019-02-04T15:26:22.638Z,5.97
2019-02-04T15:28:58.313Z,11.50
2019-02-04T15:31:33.768Z,10.20
2019-02-04T15:34:18.411Z,6.77
2019-02-04T15:36:57.687Z,9.10
2019-02-04T15:39:30.147Z,9.50
2019-02-04T15:42:02.827Z,9.70
2019-02-04T15:44:32.612Z,10.93
2019-02-04T15:47:02.877Z,7.60
2019-02-04T15:49:50.788Z,9.60
2019-02-04T15:52:14.595Z,9.63
2019-02-04T15:54:42.723Z,13.07
2019-02-04T15:57:10.895Z,9.73
2019-02-04T15:59:39.313Z,6.27
2019-02-04T16:02:07.501Z,5.30
2019-02-04T16:04:36.146Z,7.80
2019-02-04T16:07:05.581Z,16.67
2019-02-04T16:09:33.784Z,10.60
2019-02-04T16:12:02.009Z,11.30
2019-02-04T16:14:30.837Z,10.93
2019-02-04T16:16:58.889Z,7.57
2019-02-04T16:19:26.935Z,6.53
2019-02-04T16:21:55.011Z,8.20
2019-02-04T16:24:23.151Z,6.70
2019-02-04T16:26:51.190Z,5.35
2019-02-04T16:29:19.425Z,6.80
2019-02-04T16:31:47.913Z,6.53
2019-02-04T16:34:15.976Z,7.85
2019-02-04T16:36:44.244Z,6.37
2019-02-04T16:39:12.670Z,6.37
2019-02-04T16:41:40.763Z,8.53
2019-02-04T16:44:08.888Z,4.47
2019-02-04T16:46:37.399Z,5.97
2019-02-04T16:49:05.579Z,5.43
2019-02-04T16:51:33.701Z,6.63
2019-02-04T16:54:02.070Z,10.57
2019-02-04T16:56:31.840Z,5.55
2019-02-04T16:59:00.144Z,5.87
2019-02-04T17:01:28.263Z,4.90
2019-02-04T17:03:56.602Z,9.45
2019-02-04T17:06:24.744Z,5.60
2019-02-04T17:08:53.022Z,8.40
2019-02-04T17:11:21.974Z,6.87
2019-02-04T17:13:50.151Z,5.08
2019-02-04T17:16:20.150Z,7.93
2019-02-04T17:18:48.266Z,5.00
2019-02-04T17:21:16.400Z,5.00
2019-02-04T17:23:45.190Z,4.50
2019-02-04T17:26:13.381Z,6.33
2019-02-04T17:28:41.530Z,8.93
2019-02-04T17:31:09.563Z,6.60
2019-02-04T17:33:37.604Z,5.93
2019-02-04T17:36:06.053Z,8.03
2019-02-04T17:38:34.141Z,8.00
2019-02-04T17:41:02.299Z,6.97
2019-02-04T17:43:30.386Z,6.40
2019-02-04T17:45:58.944Z,3.80
2019-02-04T17:48:27.069Z,6.50
2019-02-04T17:50:55.176Z,5.17
2019-02-04T17:53:33.892Z,3.37
2019-02-04T17:55:54.782Z,6.00
2019-02-04T17:58:22.934Z,3.62
2019-02-04T18:00:51.875Z,3.80
2019-02-04T18:03:20.056Z,6.97
2019-02-04T18:05:48.278Z,5.50
2019-02-04T18:08:16.526Z,3.80
2019-02-04T18:10:44.690Z,5.63
2019-02-04T18:13:12.836Z,5.73
2019-02-04T18:15:40.958Z,6.87
2019-02-04T18:18:09.179Z,5.30
2019-02-04T18:20:37.352Z,6.13
2019-02-04T18:23:05.941Z,5.53
2019-02-04T18:25:35.080Z,7.33
2019-02-04T18:28:04.348Z,6.07
2019-02-04T18:30:33.037Z,6.30
2019-02-04T18:33:01.254Z,5.13
2019-02-04T18:35:29.745Z,6.95
2019-02-04T18:37:58.065Z,9.77
2019-02-04T18:40:26.237Z,8.47
2019-02-04T18:42:54.717Z,6.13
2019-02-04T18:45:30.220Z,8.70
2019-02-04T18:47:58.286Z,8.03
2019-02-04T18:50:26.952Z,8.80
2019-02-04T18:52:55.078Z,9.70
2019-02-04T18:55:24.262Z,6.93
2019-02-04T18:57:52.477Z,6.47
2019-02-04T19:00:21.866Z,12.43
2019-02-04T19:02:50.006Z,8.30
2019-02-04T19:05:18.544Z,6.35
2019-02-04T19:07:46.809Z,6.23
2019-02-04T19:10:16.601Z,4.47
2019-02-04T19:12:44.748Z,6.03
2019-02-04T19:15:15.022Z,6.47
2019-02-04T19:17:44.819Z,7.00
2019-02-04T19:20:15.564Z,6.03
2019-02-04T19:22:43.747Z,7.87
2019-02-04T19:25:13.455Z,5.83
2019-02-04T19:27:41.639Z,10.33
2019-02-04T19:30:27.760Z,6.83
2019-02-04T19:32:56.218Z,9.23
2019-02-04T19:35:24.262Z,7.87
2019-02-04T19:37:52.402Z,9.47
2019-02-04T19:40:20.635Z,9.57
2019-02-04T19:42:48.737Z,6.92
2019-02-04T19:45:18.207Z,7.40
2019-02-04T19:47:46.348Z,10.07
2019-02-04T19:50:16.047Z,7.87
2019-02-04T19:52:44.188Z,6.50
2019-02-04T19:55:12.288Z,6.87
2019-02-04T19:57:40.396Z,8.03
2019-02-04T20:00:15.859Z,10.73
2019-02-04T20:02:44.870Z,6.70
2019-02-04T20:05:14.447Z,5.30
2019-02-04T20:07:42.600Z,7.57
2019-02-04T20:10:12.072Z,5.73
2019-02-04T20:12:42.417Z,6.47
2019-02-04T20:15:12.091Z,8.27
2019-02-04T20:17:40.508Z,6.30
2019-02-04T20:20:09.779Z,6.07
2019-02-04T20:22:37.949Z,6.23
2019-02-04T20:25:07.689Z,5.17
2019-02-04T20:30:14.395Z,10.40
2019-02-04T20:32:42.911Z,11.23
2019-02-04T20:35:11.130Z,5.00
2019-02-04T20:37:41.314Z,14.18
2019-02-04T20:40:10.699Z,5.10
2019-02-04T20:42:39.707Z,4.90
2019-02-04T20:45:09.759Z,8.53
2019-02-04T20:47:38.169Z,7.67
2019-02-04T20:50:08.472Z,11.50
2019-02-04T20:52:36.603Z,7.80
2019-02-04T20:55:05.647Z,9.58
2019-02-04T20:57:33.772Z,12.40
2019-02-04T21:02:36.448Z,6.30
2019-02-04T21:05:05.174Z,7.30
2019-02-04T21:07:33.375Z,4.80
2019-02-04T21:10:01.548Z,5.00
2019-02-04T21:12:29.629Z,6.80
2019-02-04T21:14:57.946Z,5.63
2019-02-04T21:17:26.223Z,8.77
2019-02-04T21:19:54.483Z,8.70
2019-02-04T21:22:23.830Z,7.77
2019-02-04T21:24:56.420Z,9.93
2019-02-04T21:27:24.461Z,7.83
2019-02-04T21:29:52.563Z,8.87
2019-02-04T21:32:20.721Z,9.77
2019-02-04T21:34:52.101Z,6.23
2019-02-04T21:37:20.243Z,6.87
2019-02-04T21:39:48.292Z,7.87
2019-02-04T21:42:16.421Z,44.90
2019-02-04T21:44:44.705Z,10.23
2019-02-04T21:47:13.050Z,10.03
2019-02-04T21:49:41.261Z,8.70
2019-02-04T21:52:09.340Z,8.30
2019-02-04T21:54:40.411Z,9.23
2019-02-04T21:57:08.583Z,6.47
2019-02-04T21:59:37.484Z,6.73
2019-02-04T22:02:05.587Z,7.10
2019-02-04T22:04:33.914Z,6.33
2019-02-04T22:07:02.128Z,8.63
2019-02-04T22:09:30.324Z,7.17
2019-02-04T22:11:58.416Z,6.90
2019-02-04T22:14:28.473Z,6.80
2019-02-04T22:16:56.607Z,17.03
2019-02-04T22:19:24.697Z,5.57
2019-02-04T22:21:52.784Z,6.53
2019-02-04T22:24:20.839Z,6.72
2019-02-04T22:26:48.890Z,6.80
2019-02-04T22:29:17.305Z,5.53
2019-02-04T22:31:45.379Z,5.07
2019-02-04T22:34:14.455Z,4.95
2019-02-04T22:36:42.625Z,5.67
2019-02-04T22:39:11.075Z,5.73
2019-02-04T22:41:39.166Z,6.93
2019-02-04T22:44:07.331Z,7.03
2019-02-04T22:46:35.502Z,6.22
2019-02-04T22:49:06.863Z,5.53
2019-02-04T22:51:34.985Z,7.60
2019-02-04T22:54:03.079Z,5.00
2019-02-04T22:56:31.180Z,8.05
2019-02-04T22:58:59.366Z,7.03
2019-02-04T23:01:31.985Z,8.10
2019-02-04T23:04:00.099Z,8.83
2019-02-04T23:06:28.190Z,6.30
2019-02-04T23:08:56.246Z,6.13
2019-02-04T23:11:24.328Z,10.13
2019-02-04T23:13:52.369Z,6.45
2019-02-04T23:16:20.501Z,6.17
2019-02-04T23:18:48.619Z,6.83
2019-02-04T23:21:16.777Z,9.23
2019-02-04T23:23:44.811Z,6.43
2019-02-04T23:26:13.309Z,7.30
2019-02-04T23:28:41.501Z,7.93
2019-02-04T23:31:09.626Z,6.12
2019-02-04T23:33:37.729Z,6.07
2019-02-04T23:36:06.510Z,8.43
2019-02-04T23:38:34.593Z,6.97
2019-02-04T23:41:02.982Z,6.40
2019-02-04T23:43:31.035Z,8.53
2019-02-04T23:45:59.102Z,6.53
2019-02-04T23:48:27.245Z,7.58
2019-02-04T23:50:55.306Z,6.10
2019-02-04T23:53:23.655Z,6.20
2019-02-04T23:55:54.785Z,9.40
2019-02-04T23:58:21.984Z,10.53
